VVPB/HUI METAR and TAF weather

Enter ICAO airport designator
Station Type Date Time Source
VVPB METAR 2019/02/16 03:30 UTC NOAA

VVPB 160330Z 32005KT 9999 SCT013 28/23 Q1017 NOSIG


Station Type Date Time Source
VVPB Decoded METAR 2019/02/16 03:30 UTC NOAA

Hue, Vietnam (VVPB) 16-24N 107-41E 17M
Feb 15, 2019 - 10:30 PM EST / 2019.02.16 0330 UTC
Wind: from the NW (320 degrees) at 6 MPH (5 KT):0
Visibility: greater than 7 mile(s):0
Sky conditions: partly cloudy
Temperature: 82 F (28 C)
Dew Point: 73 F (23 C)
Relative Humidity: 74%
Pressure (altimeter): 30.03 in. Hg (1017 hPa)
ob: VVPB 160330Z 32005KT 9999 SCT013 28/23 Q1017 NOSIG
cycle: 3

Station Type Date Time Source
VVPB TAF 2019/02/15 18:00 UTC NOAA

TAF VVPB 151700Z 1518/1618 25003KT 4000 BR FEW015 SCT060
BECMG 1518/1520 1800 BR PROB30 1521/2524 0800 FG
BECMG 1600/1601 3000 BR
BECMG 1601/1602 6000 NSW
BECMG 1604/1605 08010KT


Example: see airport list